Time;durP1;ratioP1;P1;durP2;ratioP2;P2;SDS_P1;SDS_P2;PMS_P1;PMS_P2;Temp;Humidity;BMP_temperature;BMP_pressure;BME280_temperature;BME280_humidity;BME280_pressure;Samples;Min_cycle;Max_cycle;Signal;HPM_P1;HPM_P2
2022/05/15 00:00:58;;;;;;;;;;;;;;;20.38;71.51;100727.44;7408473;19;1531;-63
2022/05/15 00:03:28;;;;;;;;;;;;;;;20.39;71.60;100739.88;7406418;19;1551;-64
2022/05/15 00:05:58;;;;;;;;;;;;;;;20.34;71.16;100726.88;7407743;19;1442;-49
2022/05/15 00:08:26;;;;;;;;;;;;;;;20.37;71.20;100742.72;7407260;19;1594;-50
2022/05/15 00:11:02;;;;;;;;;;;;;;;20.36;71.19;100746.38;7407476;19;1497;-52
2022/05/15 00:13:32;;;;;;;;;;;;;;;20.38;71.50;100759.69;7407856;19;1635;-50
2022/05/15 00:16:00;;;;;;;;;;;;;;;20.41;71.27;100759.38;7407197;19;1876;-50
2022/05/15 00:18:31;;;;;;;;;;;;;;;20.36;71.13;100761.66;7407356;19;1662;-50
2022/05/15 00:21:00;;;;;;;;;;;;;;;20.38;71.20;100765.88;7407986;19;1575;-64
2022/05/15 00:23:29;;;;;;;;;;;;;;;20.35;71.32;100771.56;7406495;19;1312;-50
2022/05/15 00:25:58;;;;;;;;;;;;;;;20.35;71.51;100774.25;7406700;19;1344;-54
2022/05/15 00:28:26;;;;;;;;;;;;;;;20.34;71.02;100788.66;7408076;19;1492;-64
2022/05/15 00:30:54;;;;;;;;;;;;;;;20.35;71.24;100776.94;7407051;19;1556;-64
2022/05/15 00:33:23;;;;;;;;;;;;;;;20.38;71.37;100791.91;7404743;19;1233;-64
2022/05/15 00:35:55;;;;;;;;;;;;;;;20.36;71.03;100804.63;7406269;19;1844;-65
2022/05/15 00:38:23;;;;;;;;;;;;;;;20.36;71.46;100783.16;7406283;19;1707;-65
2022/05/15 00:40:52;;;;;;;;;;;;;;;20.32;71.26;100795.16;7405940;19;1535;-65
2022/05/15 00:43:35;;;;;;;;;;;;;;;20.33;71.23;100797.69;7404842;19;1552;-52
2022/05/15 00:46:04;;;;;;;;;;;;;;;20.33;70.97;100821.03;7406367;19;1596;-63
2022/05/15 00:48:32;;;;;;;;;;;;;;;20.35;71.26;100802.94;7406991;19;1253;-51
2022/05/15 00:51:06;;;;;;;;;;;;;;;20.30;71.24;100795.31;7406677;19;1608;-64
2022/05/15 00:53:35;;;;;;;;;;;;;;;20.33;71.50;100794.16;7402816;19;1575;-64
2022/05/15 00:56:04;;;;;;;;;;;;;;;20.33;71.21;100821.03;7406261;19;1863;-65
2022/05/15 00:58:34;;;;;;;;;;;;;;;20.31;71.21;100804.19;7405673;19;1205;-51
2022/05/15 01:01:02;;;;;;;;;;;;;;;20.33;70.99;100816.50;7406429;19;1304;-65
2022/05/15 01:03:31;;;;;;;;;;;;;;;20.31;71.18;100820.31;7404919;19;1524;-65
2022/05/15 01:05:59;;;;;;;;;;;;;;;20.32;71.13;100838.97;7406152;19;1614;-64
2022/05/15 01:08:31;;;;;;;;;;;;;;;20.31;71.31;100834.59;7405080;19;1624;-64
2022/05/15 01:11:05;;;;;;;;;;;;;;;20.28;71.30;100818.78;7405659;19;1415;-52
2022/05/15 01:13:35;;;;;;;;;;;;;;;20.32;70.99;100840.81;7405470;19;1603;-64
2022/05/15 01:16:03;;;;;;;;;;;;;;;20.32;71.00;100844.34;7403480;19;1822;-64
2022/05/15 01:18:33;;;;;;;;;;;;;;;20.32;71.19;100838.13;7404366;19;1410;-51
2022/05/15 01:21:19;;;;;;;;;;;;;;;20.31;71.09;100844.47;7406369;19;1466;-64
2022/05/15 01:23:48;;;;;;;;;;;;;;;20.30;71.31;100832.91;7404345;19;1679;-51
2022/05/15 01:26:16;;;;;;;;;;;;;;;20.28;71.37;100829.50;7404719;19;1493;-52
2022/05/15 01:28:46;;;;;;;;;;;;;;;20.27;71.13;100825.13;7405180;19;1623;-52
2022/05/15 01:31:15;;;;;;;;;;;;;;;20.27;70.89;100828.69;7404141;19;1557;-50
2022/05/15 01:33:43;;;;;;;;;;;;;;;20.29;71.15;100835.72;7404610;19;1532;-65
2022/05/15 01:36:14;;;;;;;;;;;;;;;20.27;71.38;100823.31;7404841;19;1868;-65
2022/05/15 01:38:43;;;;;;;;;;;;;;;20.25;71.20;100829.78;7404355;19;1585;-64
2022/05/15 01:41:12;;;;;;;;;;;;;;;20.29;71.17;100819.63;7403468;19;1615;-52
2022/05/15 01:43:41;;;;;;;;;;;;;;;20.25;70.99;100814.53;7404208;19;1344;-65
2022/05/15 01:46:10;;;;;;;;;;;;;;;20.26;71.56;100836.88;7404236;19;1619;-50
2022/05/15 01:48:38;;;;;;;;;;;;;;;20.25;71.03;100830.66;7404797;19;1295;-51
2022/05/15 01:51:06;;;;;;;;;;;;;;;20.26;71.10;100832.34;7404385;19;1574;-64
2022/05/15 01:53:37;;;;;;;;;;;;;;;20.26;71.00;100843.06;7402072;19;1536;-65
2022/05/15 01:56:06;;;;;;;;;;;;;;;20.27;71.35;100839.41;7404225;19;1856;-65
2022/05/15 01:58:35;;;;;;;;;;;;;;;20.23;71.01;100827.25;7403772;19;1314;-64
2022/05/15 02:01:03;;;;;;;;;;;;;;;20.25;71.26;100822.59;7396039;19;1545;-64
2022/05/15 02:03:32;;;;;;;;;;;;;;;20.27;71.00;100846.59;7403073;19;1441;-64
2022/05/15 02:06:01;;;;;;;;;;;;;;;20.25;71.14;100829.78;7408248;19;1594;-65
2022/05/15 02:08:31;;;;;;;;;;;;;;;20.26;71.21;100843.06;7412201;19;1347;-65
2022/05/15 02:11:02;;;;;;;;;;;;;;;20.26;71.32;100837.69;7411039;19;1595;-65
2022/05/15 02:13:31;;;;;;;;;;;;;;;20.26;71.07;100848.44;7411082;19;1606;-65
2022/05/15 02:15:59;;;;;;;;;;;;;;;20.23;71.30;100827.25;7410701;19;1544;-65
2022/05/15 02:18:28;;;;;;;;;;;;;;;20.24;71.20;100854.97;7408605;19;1818;-65
2022/05/15 02:20:57;;;;;;;;;;;;;;;20.25;70.91;100859.31;7411078;19;1499;-65
2022/05/15 02:23:26;;;;;;;;;;;;;;;20.24;71.29;100847.75;7410389;19;1532;-65
2022/05/15 02:25:55;;;;;;;;;;;;;;;20.22;71.04;100847.03;7409162;19;1535;-65
2022/05/15 02:28:27;;;;;;;;;;;;;;;20.24;71.17;100861.16;7409481;19;1543;-65
2022/05/15 02:30:55;;;;;;;;;;;;;;;20.21;71.01;100853.41;7409441;19;1757;-65
2022/05/15 02:33:24;;;;;;;;;;;;;;;20.22;70.94;100852.41;7410722;19;1615;-65
2022/05/15 02:35:52;;;;;;;;;;;;;;;20.25;71.22;100862.88;7409799;19;1545;-65
2022/05/15 02:38:21;;;;;;;;;;;;;;;20.23;71.06;100867.53;7406169;19;1850;-65
2022/05/15 02:40:49;;;;;;;;;;;;;;;20.18;71.03;100856.38;7408977;19;1535;-65
2022/05/15 02:43:18;;;;;;;;;;;;;;;20.22;71.08;100871.19;7406075;19;1520;-66
2022/05/15 02:45:49;;;;;;;;;;;;;;;20.21;70.88;100856.09;7409774;19;1626;-65
2022/05/15 02:51:07;;;;;;;;;;;;;;;20.22;70.60;100863.16;7411145;19;1307;-65
2022/05/15 02:53:36;;;;;;;;;;;;;;;20.20;70.66;100858.91;7407786;19;1750;-65
2022/05/15 02:56:06;;;;;;;;;;;;;;;20.20;70.66;100870.50;7409711;19;1493;-65
2022/05/15 02:58:34;;;;;;;;;;;;;;;20.20;70.48;100875.03;7406373;19;1834;-65
2022/05/15 03:01:05;;;;;;;;;;;;;;;20.22;70.86;100891.84;7407038;19;1234;-65
2022/05/15 03:03:34;;;;;;;;;;;;;;;20.17;70.49;100878.81;7407459;19;1359;-65
2022/05/15 03:06:03;;;;;;;;;;;;;;;20.17;70.50;100884.19;7408789;19;1408;-65
2022/05/15 03:08:31;;;;;;;;;;;;;;;20.17;70.61;100889.56;7408519;19;1353;-65
2022/05/15 03:11:00;;;;;;;;;;;;;;;20.18;70.67;100888.59;7407956;19;1284;-65
2022/05/15 03:13:28;;;;;;;;;;;;;;;20.17;70.63;100886.88;7408143;19;1323;-66
2022/05/15 03:15:57;;;;;;;;;;;;;;;20.19;70.60;100901.03;7406004;19;1304;-65
2022/05/15 03:18:28;;;;;;;;;;;;;;;20.21;70.60;100890.13;7403333;19;1866;-65
2022/05/15 03:20:56;;;;;;;;;;;;;;;20.16;70.57;100890.56;7406995;19;1209;-65
2022/05/15 03:23:25;;;;;;;;;;;;;;;20.18;70.75;100883.22;7405629;19;1366;-65
2022/05/15 03:25:53;;;;;;;;;;;;;;;20.17;70.44;100860.03;7407480;19;1376;-65
2022/05/15 03:28:22;;;;;;;;;;;;;;;20.21;70.23;100892.81;7406656;19;1636;-64
2022/05/15 03:30:50;;;;;;;;;;;;;;;20.17;70.65;100886.88;7406815;19;1371;-65
2022/05/15 03:33:19;;;;;;;;;;;;;;;20.18;70.33;100871.63;7407347;19;1315;-65
2022/05/15 03:35:50;;;;;;;;;;;;;;;20.17;70.31;100869.94;7406162;19;1300;-64
2022/05/15 03:38:19;;;;;;;;;;;;;;;20.16;70.76;100863.72;7405560;19;1857;-51
2022/05/15 03:40:47;;;;;;;;;;;;;;;20.15;71.19;100875.44;7406270;19;1345;-52
2022/05/15 03:43:15;;;;;;;;;;;;;;;20.17;71.08;100908.34;7404105;19;1500;-53
2022/05/15 03:45:44;;;;;;;;;;;;;;;20.16;71.16;100885.19;7407528;19;1355;-53
2022/05/15 03:48:12;;;;;;;;;;;;;;;20.17;71.29;100899.47;7407116;19;1537;-52
2022/05/15 03:50:41;;;;;;;;;;;;;;;20.14;71.05;100881.81;7407832;19;1347;-65
2022/05/15 03:53:12;;;;;;;;;;;;;;;20.14;71.13;100884.50;7408445;19;1631;-66
2022/05/15 03:55:40;;;;;;;;;;;;;;;20.17;71.20;100902.16;7405965;19;1508;-65
2022/05/15 03:58:09;;;;;;;;;;;;;;;20.18;70.74;100912.75;7404588;19;1849;-65
2022/05/15 04:00:37;;;;;;;;;;;;;;;20.14;70.90;100892.53;7407893;19;1497;-65
2022/05/15 04:03:06;;;;;;;;;;;;;;;20.14;70.83;100897.91;7407870;19;1251;-65
2022/05/15 04:05:34;;;;;;;;;;;;;;;20.20;70.85;100897.34;7402458;19;1288;-65
2022/05/15 04:08:03;;;;;;;;;;;;;;;20.17;70.85;100908.34;7406571;19;1404;-65
2022/05/15 04:10:35;;;;;;;;;;;;;;;20.15;70.80;100898.75;7406717;19;1270;-52
2022/05/15 04:13:03;;;;;;;;;;;;;;;20.16;70.79;100912.03;7406085;19;1334;-52
2022/05/15 04:15:33;;;;;;;;;;;;;;;20.16;70.72;100900.47;7405923;19;1322;-52
2022/05/15 04:18:01;;;;;;;;;;;;;;;20.15;71.02;100910.31;7404844;19;1845;-53
2022/05/15 04:20:30;;;;;;;;;;;;;;;20.15;70.66;100904.97;7406087;19;1197;-53
2022/05/15 04:22:59;;;;;;;;;;;;;;;20.17;70.49;100918.25;7405927;19;1314;-51
2022/05/15 04:25:27;;;;;;;;;;;;;;;20.17;70.55;100919.09;7404586;19;1318;-52
2022/05/15 04:27:59;;;;;;;;;;;;;;;20.19;70.76;100924.34;7404666;19;1412;-52
2022/05/15 04:30:28;;;;;;;;;;;;;;;20.23;70.57;100940.03;7406550;19;1263;-52
2022/05/15 04:32:57;;;;;;;;;;;;;;;20.22;70.79;100922.22;7405372;19;1300;-51
2022/05/15 04:35:26;;;;;;;;;;;;;;;20.26;70.42;100937.06;7405967;19;1345;-53
2022/05/15 04:37:55;;;;;;;;;;;;;;;20.30;70.06;100932.28;7404704;19;1867;-53
2022/05/15 04:40:23;;;;;;;;;;;;;;;20.35;70.34;100927.34;7406052;19;1741;-53
2022/05/15 04:42:52;;;;;;;;;;;;;;;20.39;70.27;100939.50;7405402;19;1401;-52
2022/05/15 04:45:23;;;;;;;;;;;;;;;20.40;70.13;100929.59;7405602;19;1302;-53
2022/05/15 04:47:52;;;;;;;;;;;;;;;20.44;70.25;100917.56;7404227;19;1435;-52
2022/05/15 04:50:21;;;;;;;;;;;;;;;20.44;70.14;100925.63;7405916;19;1353;-52
2022/05/15 04:52:50;;;;;;;;;;;;;;;20.43;70.50;100937.34;7405780;19;1446;-52
2022/05/15 04:55:18;;;;;;;;;;;;;;;20.42;70.26;100939.19;7406704;19;1535;-53
2022/05/15 04:57:47;;;;;;;;;;;;;;;20.49;70.10;100936.78;7404867;19;1861;-53
2022/05/15 05:00:17;;;;;;;;;;;;;;;20.46;70.33;100940.59;7404822;19;1414;-51
2022/05/15 05:02:48;;;;;;;;;;;;;;;20.52;69.97;100941.06;7404590;19;1373;-53
2022/05/15 05:05:17;;;;;;;;;;;;;;;20.56;70.06;100950.53;7403473;19;1438;-51
2022/05/15 05:07:45;;;;;;;;;;;;;;;20.61;69.75;100942.91;7405650;19;1389;-53
2022/05/15 05:10:14;;;;;;;;;;;;;;;20.68;69.57;100945.88;7405777;19;1090;-53
2022/05/15 05:12:43;;;;;;;;;;;;;;;20.83;69.23;100941.75;7404113;19;1727;-52
2022/05/15 05:15:12;;;;;;;;;;;;;;;20.90;68.77;100942.88;7404058;19;1653;-52
2022/05/15 05:17:41;;;;;;;;;;;;;;;20.91;68.99;100955.34;7402943;19;1857;-52
2022/05/15 05:20:13;;;;;;;;;;;;;;;20.92;68.78;100946.28;7401412;19;1369;-53
2022/05/15 05:22:42;;;;;;;;;;;;;;;20.93;69.07;100948.00;7402932;19;1254;-53
2022/05/15 05:25:11;;;;;;;;;;;;;;;21.00;69.23;100956.31;7404405;19;1672;-53
2022/05/15 05:27:41;;;;;;;;;;;;;;;21.01;68.97;100956.19;7403318;19;1296;-53
2022/05/15 05:30:11;;;;;;;;;;;;;;;21.08;68.93;100942.16;7401001;19;1237;-53
2022/05/15 05:32:39;;;;;;;;;;;;;;;21.11;69.02;100949.91;7403827;19;1161;-52
2022/05/15 05:35:09;;;;;;;;;;;;;;;21.09;69.90;100941.16;7405034;19;1366;-53
2022/05/15 05:37:40;;;;;;;;;;;;;;;21.14;69.35;100945.09;7402678;19;1869;-53
2022/05/15 05:40:09;;;;;;;;;;;;;;;21.18;69.33;100934.91;7402950;19;1443;-52
2022/05/15 05:42:38;;;;;;;;;;;;;;;21.22;69.13;100941.69;7401135;19;1440;-53
2022/05/15 05:45:08;;;;;;;;;;;;;;;21.30;69.00;100949.88;7401684;19;1255;-55
2022/05/15 05:47:36;;;;;;;;;;;;;;;21.26;69.68;100964.59;7403226;19;1179;-51
2022/05/15 05:50:08;;;;;;;;;;;;;;;21.27;69.22;100942.09;7405427;19;1527;-55
2022/05/15 05:52:37;;;;;;;;;;;;;;;21.31;69.39;100945.34;7406139;19;992;-51
2022/05/15 05:55:10;;;;;;;;;;;;;;;21.32;68.95;100957.81;7404175;19;1727;-52
2022/05/15 05:57:39;;;;;;;;;;;;;;;21.36;68.89;100951.13;7402382;19;1867;-51
2022/05/15 06:00:08;;;;;;;;;;;;;;;21.34;68.72;100971.94;7402472;19;1572;-50
2022/05/15 06:02:43;;;;;;;;;;;;;;;21.39;68.53;100965.16;7403062;19;1591;-49
2022/05/15 06:05:09;;;;;;;;;;;;;;;21.59;68.10;100965.94;7401372;19;1317;-50
2022/05/15 06:07:37;;;;;;;;;;;;;;;21.53;68.06;100966.53;7402799;19;1181;-51
2022/05/15 06:10:10;;;;;;;;;;;;;;;21.43;68.15;100952.28;7403483;19;1633;-51
2022/05/15 06:12:40;;;;;;;;;;;;;;;21.48;68.43;100962.59;7402024;19;1569;-51
2022/05/15 06:15:09;;;;;;;;;;;;;;;21.64;67.90;100962.81;7401092;19;1282;-54
2022/05/15 06:17:38;;;;;;;;;;;;;;;21.53;67.78;100966.53;7402534;19;1833;-53
2022/05/15 06:20:08;;;;;;;;;;;;;;;21.47;68.32;100971.66;7402683;19;1279;-53
2022/05/15 06:22:36;;;;;;;;;;;;;;;21.38;68.08;100957.22;7399044;19;1268;-53
2022/05/15 06:25:05;;;;;;;;;;;;;;;21.40;67.85;100965.97;7400897;19;1429;-52
2022/05/15 06:27:36;;;;;;;;;;;;;;;21.52;67.82;100964.00;7401298;19;1703;-56
2022/05/15 06:30:05;;;;;;;;;;;;;;;21.44;67.85;100968.25;7401102;19;1494;-57
2022/05/15 06:32:34;;;;;;;;;;;;;;;21.43;68.15;100971.97;7402399;19;1648;-56
2022/05/15 06:35:02;;;;;;;;;;;;;;;21.44;67.81;100988.94;7401781;19;1383;-56
2022/05/15 06:37:30;;;;;;;;;;;;;;;21.31;68.36;100985.69;7394296;19;1347;-64
2022/05/15 06:39:59;;;;;;;;;;;;;;;21.28;66.62;100994.91;7402269;19;1549;-65
2022/05/15 06:42:29;;;;;;;;;;;;;;;21.30;67.23;100986.69;7401984;19;1857;-72
2022/05/15 06:45:00;;;;;;;;;;;;;;;21.19;67.44;100987.72;7400277;19;1708;-65
2022/05/15 06:47:29;;;;;;;;;;;;;;;21.16;67.42;100996.91;7400914;19;1524;-57
2022/05/15 06:49:58;;;;;;;;;;;;;;;21.14;67.74;100992.66;7401142;19;1359;-61
2022/05/15 06:52:26;;;;;;;;;;;;;;;21.38;67.62;100989.50;7407888;19;1431;-59
2022/05/15 06:54:54;;;;;;;;;;;;;;;21.42;67.12;100985.50;7408674;19;1670;-56
2022/05/15 06:57:29;;;;;;;;;;;;;;;21.37;67.59;100993.19;7409207;19;1446;-57
2022/05/15 07:00:00;;;;;;;;;;;;;;;21.51;67.17;100979.31;7406131;19;1846;-63
2022/05/15 07:02:30;;;;;;;;;;;;;;;21.35;67.72;100990.66;7408342;19;1611;-68
2022/05/15 07:04:58;;;;;;;;;;;;;;;21.34;67.70;100988.94;7404516;19;1540;-58
2022/05/15 07:07:27;;;;;;;;;;;;;;;21.31;67.94;100970.41;7406834;19;1629;-56
2022/05/15 07:09:55;;;;;;;;;;;;;;;21.35;68.18;100995.19;7409426;19;1478;-63
2022/05/15 07:12:24;;;;;;;;;;;;;;;21.41;67.81;100967.69;7408438;19;1274;-63
2022/05/15 07:14:52;;;;;;;;;;;;;;;21.52;67.39;100972.06;7408096;19;1231;-64
2022/05/15 07:17:23;;;;;;;;;;;;;;;21.63;67.18;100980.81;7408469;19;1631;-56
2022/05/15 07:19:51;;;;;;;;;;;;;;;21.61;67.39;100974.72;7404920;19;1857;-59
2022/05/15 07:22:19;;;;;;;;;;;;;;;21.63;67.74;100969.19;7408516;19;1342;-57
2022/05/15 07:24:48;;;;;;;;;;;;;;;21.60;67.70;100989.16;7409215;19;1381;-58
2022/05/15 07:27:17;;;;;;;;;;;;;;;21.66;67.84;100982.34;7408397;19;1264;-60
2022/05/15 07:29:45;;;;;;;;;;;;;;;21.71;67.67;100985.47;7407323;19;1322;-67
2022/05/15 07:32:14;;;;;;;;;;;;;;;21.74;67.45;101000.44;7404624;19;1699;-62
2022/05/15 07:34:45;;;;;;;;;;;;;;;21.77;68.00;100984.03;7407309;19;1308;-61
2022/05/15 07:37:14;;;;;;;;;;;;;;;21.74;67.82;100976.22;7406173;19;1508;-57
2022/05/15 07:39:42;;;;;;;;;;;;;;;21.79;68.63;100988.25;7406913;19;1858;-68
2022/05/15 07:42:11;;;;;;;;;;;;;;;21.84;67.75;100990.47;7406553;19;1618;-67
2022/05/15 07:44:39;;;;;;;;;;;;;;;21.71;67.79;100990.84;7406963;19;1316;-56
2022/05/15 07:47:08;;;;;;;;;;;;;;;21.78;67.91;100991.91;7406978;19;1332;-58
2022/05/15 07:49:37;;;;;;;;;;;;;;;21.77;67.98;100992.09;7405518;19;1726;-66
2022/05/15 07:52:08;;;;;;;;;;;;;;;21.73;67.34;100988.84;7409362;19;1342;-68
2022/05/15 07:54:37;;;;;;;;;;;;;;;21.69;67.59;101008.97;7403955;19;1344;-64
2022/05/15 07:57:06;;;;;;;;;;;;;;;21.75;68.08;101003.00;7405952;19;1662;-60
2022/05/15 07:59:34;;;;;;;;;;;;;;;21.73;68.68;100988.84;7400585;19;1850;-59
2022/05/15 08:02:06;;;;;;;;;;;;;;;21.68;68.21;100995.66;7403414;19;1331;-64
2022/05/15 08:08:00;;;;;;;;;;;;;;;21.61;69.04;100985.50;7405757;19;1236;-54
2022/05/15 08:10:07;;;;;;;;;;;;;;;21.73;68.89;100993.38;7406606;19;1254;-56
2022/05/15 08:12:36;;;;;;;;;;;;;;;21.79;68.54;100993.63;7404153;19;1626;-65
2022/05/15 08:15:04;;;;;;;;;;;;;;;21.79;68.11;100984.72;7402883;19;1537;-67
2022/05/15 08:17:33;;;;;;;;;;;;;;;21.62;68.80;100992.56;7402753;19;1331;-54
2022/05/15 08:25:26;;;;;;;;;;;;;;;21.58;68.18;100991.16;7407326;19;1466;-57
2022/05/15 08:27:54;;;;;;;;;;;;;;;21.56;68.17;100997.69;7406266;19;1614;-65
2022/05/15 08:30:23;;;;;;;;;;;;;;;21.63;68.09;100994.25;7405438;19;1705;-55
2022/05/15 08:32:55;;;;;;;;;;;;;;;21.78;67.74;101008.06;7406674;19;1646;-55
2022/05/15 08:35:23;;;;;;;;;;;;;;;21.67;68.36;100991.28;7406996;19;1527;-66
2022/05/15 08:37:54;;;;;;;;;;;;;;;21.72;68.11;100999.75;7406755;19;1504;-65
2022/05/15 08:40:26;;;;;;;;;;;;;;;21.71;68.04;101001.59;7404420;19;1846;-71
2022/05/15 08:42:57;;;;;;;;;;;;;;;21.69;68.43;100997.38;7404215;19;1475;-58
2022/05/15 08:45:26;;;;;;;;;;;;;;;21.52;68.78;100991.75;7405361;19;1712;-57
2022/05/15 08:47:59;;;;;;;;;;;;;;;21.50;68.86;100987.50;7405377;19;1696;-65
2022/05/15 08:50:29;;;;;;;;;;;;;;;21.44;68.48;101003.22;7405893;19;1616;-66
2022/05/15 08:53:02;;;;;;;;;;;;;;;21.33;68.69;101008.78;7405021;19;1418;-66
2022/05/15 08:55:34;;;;;;;;;;;;;;;21.32;68.56;101006.22;7404510;19;1692;-63
2022/05/15 08:58:05;;;;;;;;;;;;;;;21.28;68.93;101008.34;7405824;19;1561;-66
2022/05/15 09:00:34;;;;;;;;;;;;;;;21.19;68.76;101001.16;7404137;19;1845;-66
2022/05/15 09:03:08;;;;;;;;;;;;;;;21.20;68.85;101006.38;7406203;19;1768;-56
2022/05/15 09:05:37;;;;;;;;;;;;;;;21.21;68.82;101007.25;7403501;19;1553;-55
2022/05/15 09:08:16;;;;;;;;;;;;;;;21.21;68.85;101000.00;7404585;19;1620;-67
2022/05/15 09:10:49;;;;;;;;;;;;;;;21.19;68.66;101017.28;7404286;19;1553;-56
2022/05/15 09:13:29;;;;;;;;;;;;;;;21.16;69.25;101001.44;7403692;19;1532;-56
2022/05/15 09:16:00;;;;;;;;;;;;;;;21.12;69.37;101010.78;7405533;19;1536;-67
2022/05/15 09:18:29;;;;;;;;;;;;;;;21.17;69.10;101011.19;7406203;19;1851;-67
2022/05/15 09:21:01;;;;;;;;;;;;;;;21.19;69.63;101011.91;7405842;19;1634;-58
2022/05/15 09:23:34;;;;;;;;;;;;;;;21.16;68.07;101022.94;7404452;19;1686;-65
2022/05/15 09:26:12;;;;;;;;;;;;;;;21.14;68.83;101008.81;7404102;19;1602;-66
2022/05/15 09:28:43;;;;;;;;;;;;;;;21.16;69.29;101006.81;7403418;19;1632;-72
2022/05/15 09:31:26;;;;;;;;;;;;;;;21.24;69.71;101009.63;7404128;19;1498;-58
2022/05/15 09:33:55;;;;;;;;;;;;;;;21.42;70.54;101021.34;7404781;19;1527;-57
2022/05/15 09:36:26;;;;;;;;;;;;;;;21.29;70.23;101006.50;7403062;19;1529;-70
2022/05/15 09:39:11;;;;;;;;;;;;;;;21.25;71.06;101016.72;7405831;19;1842;-58
2022/05/15 09:44:26;;;;;;;;;;;;;;;21.10;71.50;101016.28;7403493;19;1294;-59
2022/05/15 09:46:59;;;;;;;;;;;;;;;21.09;71.92;101016.44;7403694;19;1391;-78
2022/05/15 09:49:29;;;;;;;;;;;;;;;21.06;71.60;101042.63;7402022;19;1351;-58
2022/05/15 09:52:00;;;;;;;;;;;;;;;21.13;71.18;101007.97;7404259;19;1263;-62
2022/05/15 09:54:44;;;;;;;;;;;;;;;21.11;71.13;101025.22;7403083;19;1698;-58
2022/05/15 09:57:16;;;;;;;;;;;;;;;21.06;71.42;101021.09;7404282;19;1694;-58
2022/05/15 09:59:45;;;;;;;;;;;;;;;21.04;71.24;101031.16;7402257;19;1860;-61
2022/05/15 10:02:20;;;;;;;;;;;;;;;21.01;71.73;101026.09;7403635;19;1532;-57
2022/05/15 10:04:56;;;;;;;;;;;;;;;21.03;71.63;101026.78;7399155;19;1375;-59
2022/05/15 10:07:32;;;;;;;;;;;;;;;20.99;69.47;101038.81;7403436;19;1495;-62
2022/05/15 10:10:16;;;;;;;;;;;;;;;20.75;65.72;101022.25;7403098;19;1458;-62
2022/05/15 10:12:45;;;;;;;;;;;;;;;20.47;68.15;101032.78;7403377;19;1447;-58
2022/05/15 10:15:14;;;;;;;;;;;;;;;20.60;68.01;101021.81;7403038;19;1727;-58
2022/05/15 10:17:46;;;;;;;;;;;;;;;20.68;67.89;101024.66;7404461;19;1426;-58
2022/05/15 10:20:20;;;;;;;;;;;;;;;20.81;69.17;101024.38;7402875;19;1848;-62
2022/05/15 10:22:52;;;;;;;;;;;;;;;20.77;69.06;101039.06;7404532;19;1560;-61
2022/05/15 10:25:25;;;;;;;;;;;;;;;20.78;69.64;101027.34;7403735;19;1505;-58
2022/05/15 10:27:57;;;;;;;;;;;;;;;20.76;69.75;101027.50;7410390;19;1411;-58
2022/05/15 10:30:28;;;;;;;;;;;;;;;20.81;69.78;101027.94;7408302;19;1263;-72
2022/05/15 10:32:59;;;;;;;;;;;;;;;20.84;70.09;101019.56;7411553;19;1679;-59
2022/05/15 10:35:33;;;;;;;;;;;;;;;20.82;70.06;101026.91;7409180;19;1483;-59
2022/05/15 10:38:09;;;;;;;;;;;;;;;20.84;70.04;101024.94;7407782;19;1517;-60
2022/05/15 10:40:46;;;;;;;;;;;;;;;20.86;70.21;101041.78;7404688;19;1848;-58
2022/05/15 10:43:28;;;;;;;;;;;;;;;20.89;70.08;101026.34;7408164;19;1685;-58
2022/05/15 10:45:59;;;;;;;;;;;;;;;20.87;69.95;101039.97;7408056;19;1430;-60
2022/05/15 10:48:42;;;;;;;;;;;;;;;20.83;69.84;101033.13;7408204;19;1264;-60
2022/05/15 10:51:17;;;;;;;;;;;;;;;20.82;69.95;101036.84;7409813;19;1346;-58
2022/05/15 10:59:43;;;;;;;;;;;;;;;20.82;71.31;101047.59;7409350;19;1852;-59
2022/05/15 11:02:24;;;;;;;;;;;;;;;20.65;71.54;101049.97;7408826;19;1432;-58
2022/05/15 11:04:55;;;;;;;;;;;;;;;20.63;71.96;101040.34;7408598;19;1153;-61
2022/05/15 11:07:25;;;;;;;;;;;;;;;20.85;72.85;101032.03;7409760;19;1406;-67
2022/05/15 11:10:03;;;;;;;;;;;;;;;21.14;72.35;101043.75;7409541;19;1377;-57
2022/05/15 11:12:37;;;;;;;;;;;;;;;21.25;72.38;101038.25;7408401;19;1392;-55
2022/05/15 11:15:10;;;;;;;;;;;;;;;21.51;72.06;101046.56;7409705;19;1614;-55
2022/05/15 11:17:45;;;;;;;;;;;;;;;21.14;67.74;101049.13;7408325;19;1546;-55
2022/05/15 11:20:18;;;;;;;;;;;;;;;20.88;70.94;101040.81;7407921;19;1849;-62
2022/05/15 11:22:49;;;;;;;;;;;;;;;20.75;70.67;101057.19;7409179;19;1505;-55
2022/05/15 11:25:20;;;;;;;;;;;;;;;20.64;68.29;101040.19;7410855;19;925;-55
2022/05/15 11:27:53;;;;;;;;;;;;;;;20.61;70.33;101035.13;7409823;19;1548;-61
2022/05/15 11:30:23;;;;;;;;;;;;;;;20.56;67.20;101040.03;7408152;19;1514;-54
2022/05/15 11:33:03;;;;;;;;;;;;;;;20.58;70.43;101035.34;7408353;19;1776;-55
2022/05/15 11:35:33;;;;;;;;;;;;;;;20.60;71.23;101017.28;7408069;19;1682;-54
2022/05/15 11:38:11;;;;;;;;;;;;;;;20.91;71.17;101019.88;7406664;19;1505;-61
2022/05/15 11:40:41;;;;;;;;;;;;;;;20.81;71.75;101019.00;7406752;19;1869;-61
2022/05/15 11:43:24;;;;;;;;;;;;;;;20.80;72.15;101010.09;7406312;19;1481;-63
2022/05/15 11:45:57;;;;;;;;;;;;;;;20.86;72.31;101014.06;7408290;19;1574;-55
2022/05/15 11:48:27;;;;;;;;;;;;;;;20.81;73.45;101008.25;7406770;19;1541;-56
2022/05/15 11:50:58;;;;;;;;;;;;;;;20.76;73.46;101010.53;7407468;19;1439;-58
2022/05/15 11:53:28;;;;;;;;;;;;;;;20.77;73.26;101009.50;7407433;19;1614;-63
2022/05/15 11:55:58;;;;;;;;;;;;;;;20.76;73.44;101013.22;7406521;19;1256;-54
2022/05/15 11:58:33;;;;;;;;;;;;;;;20.77;73.53;101022.94;7406509;19;1573;-54
2022/05/15 12:01:12;;;;;;;;;;;;;;;20.68;73.64;101016.59;7405540;19;1846;-62
2022/05/15 12:03:46;;;;;;;;;;;;;;;20.71;73.46;101021.69;7406816;19;1528;-54
2022/05/15 12:06:17;;;;;;;;;;;;;;;20.70;73.71;101003.88;7407605;19;1040;-54
2022/05/15 12:08:46;;;;;;;;;;;;;;;20.69;73.63;101015.63;7406828;19;1714;-61
2022/05/15 12:11:16;;;;;;;;;;;;;;;20.71;73.47;101012.78;7406515;19;1763;-57
2022/05/15 12:13:46;;;;;;;;;;;;;;;20.69;73.58;100998.63;7407471;19;1458;-53
2022/05/15 12:16:22;;;;;;;;;;;;;;;20.64;74.14;101002.59;7407514;19;1505;-62
2022/05/15 12:18:55;;;;;;;;;;;;;;;20.66;74.18;101003.28;7407606;19;1636;-53
2022/05/15 12:21:25;;;;;;;;;;;;;;;20.71;73.80;100999.34;7405755;19;1893;-54
2022/05/15 12:26:39;;;;;;;;;;;;;;;20.71;73.42;101004.72;7403695;19;2446;-62
2022/05/15 12:29:16;;;;;;;;;;;;;;;20.77;73.06;101012.19;7406237;19;1598;-62
2022/05/15 12:31:48;;;;;;;;;;;;;;;20.70;72.68;100989.59;7404861;19;1549;-54
2022/05/15 12:34:19;;;;;;;;;;;;;;;20.68;72.71;100992.41;7406335;19;1777;-63
2022/05/15 12:36:54;;;;;;;;;;;;;;;20.75;72.65;100998.94;7407771;19;1650;-56
2022/05/15 12:39:25;;;;;;;;;;;;;;;20.70;72.88;100984.22;7404342;19;1548;-56
2022/05/15 12:41:53;;;;;;;;;;;;;;;20.68;72.71;100981.66;7404257;19;1655;-62
2022/05/15 12:44:35;;;;;;;;;;;;;;;20.73;72.60;100986.59;7405935;19;1458;-55
2022/05/15 12:47:09;;;;;;;;;;;;;;;20.72;72.52;100988.44;7405831;19;1430;-54
2022/05/15 12:49:39;;;;;;;;;;;;;;;20.79;72.03;100986.91;7403455;19;1282;-62
2022/05/15 12:52:11;;;;;;;;;;;;;;;20.78;71.88;100989.72;7407594;19;1694;-62
2022/05/15 12:54:40;;;;;;;;;;;;;;;20.75;71.71;100992.69;7406667;19;1505;-54
2022/05/15 12:57:10;;;;;;;;;;;;;;;20.73;71.88;100984.78;7406320;19;1555;-54
2022/05/15 12:59:40;;;;;;;;;;;;;;;20.78;71.45;100970.91;7403473;19;1902;-63
2022/05/15 13:02:26;;;;;;;;;;;;;;;20.82;70.77;100991.13;7405166;19;1295;-62
2022/05/15 13:04:56;;;;;;;;;;;;;;;20.80;70.38;100971.63;7404034;19;1518;-54
2022/05/15 13:07:25;;;;;;;;;;;;;;;20.82;70.22;100966.94;7405045;19;1377;-63
2022/05/15 13:10:04;;;;;;;;;;;;;;;20.83;69.98;100963.25;7404853;19;1648;-55
2022/05/15 13:12:32;;;;;;;;;;;;;;;20.84;69.92;100956.91;7404617;19;1489;-54
2022/05/15 13:15:03;;;;;;;;;;;;;;;20.83;70.00;100950.69;7405072;19;1398;-54
2022/05/15 13:17:38;;;;;;;;;;;;;;;20.88;70.24;100966.38;7405396;19;1520;-53
2022/05/15 13:20:08;;;;;;;;;;;;;;;20.85;69.92;100953.25;7405307;19;1849;-54
2022/05/15 13:22:37;;;;;;;;;;;;;;;20.80;70.19;100942.06;7406235;19;1595;-54
2022/05/15 13:25:07;;;;;;;;;;;;;;;20.81;70.16;100938.34;7406001;19;1482;-62
2022/05/15 13:27:37;;;;;;;;;;;;;;;20.79;69.85;100941.22;7405302;19;1644;-63